Time;durP1;ratioP1;P1;durP2;ratioP2;P2;SDS_P1;SDS_P2;PMS_P1;PMS_P2;Temp;Humidity;BMP_temperature;BMP_pressure;BME280_temperature;BME280_humidity;BME280_pressure;Samples;Min_cycle;Max_cycle;Signal;HPM_P1;HPM_P2
2023/05/01 00:01:10;;;;;;;;;;;12.70;99.90;;;;;;5040479;28;19924;-82
2023/05/01 00:03:41;;;;;;;;;;;12.70;99.90;;;;;;5022524;28;19996;-82
2023/05/01 00:06:09;;;;;;;;;;;12.60;99.90;;;;;;5040532;28;19972;-82
2023/05/01 00:08:35;;;;;;;;;;;12.60;99.90;;;;;;5023650;28;19987;-82
2023/05/01 00:11:03;;;;;;;;;;;12.60;99.90;;;;;;5024421;28;20347;-82
2023/05/01 00:13:30;;;;;;;;;;;12.60;99.90;;;;;;5040161;28;19925;-82
2023/05/01 00:15:57;;;;;;;;;;;12.60;99.90;;;;;;5023400;28;19925;-82
2023/05/01 00:18:23;;;;;;;;;;;12.60;99.90;;;;;;5023811;28;19968;-82
2023/05/01 00:20:50;;;;;;;;;;;12.60;99.90;;;;;;5040086;28;19994;-82
2023/05/01 00:23:17;;;;;;;;;;;12.60;99.90;;;;;;5018420;28;20389;-82
2023/05/01 00:25:44;;;;;;;;;;;12.60;99.90;;;;;;4999160;28;19921;-82
2023/05/01 00:28:11;;;;;;;;;;;12.60;99.90;;;;;;4999379;28;19932;-82
2023/05/01 00:30:39;;;;;;;;;;;12.60;99.90;;;;;;5003153;28;19948;-82
2023/05/01 00:33:06;;;;;;;;;;;12.60;99.90;;;;;;5016162;28;19968;-82
2023/05/01 00:35:34;;;;;;;;;;;12.50;99.90;;;;;;5023329;28;20004;-82
2023/05/01 00:38:01;;;;;;;;;;;12.50;99.90;;;;;;5038976;28;19935;-81
2023/05/01 00:40:27;;;;;;;;;;;12.50;99.90;;;;;;5023307;28;19949;-82
2023/05/01 00:42:54;;;;;;;;;;;12.50;99.90;;;;;;5022696;28;20349;-82
2023/05/01 00:45:21;;;;;;;;;;;12.60;99.90;;;;;;5023186;28;19933;-82
2023/05/01 00:47:47;;;;;;;;;;;12.60;99.90;;;;;;5038843;28;19937;-82
2023/05/01 00:50:15;;;;;;;;;;;12.60;99.90;;;;;;5023070;28;19921;-82
2023/05/01 00:52:41;;;;;;;;;;;12.60;99.90;;;;;;5022686;28;20024;-81
2023/05/01 00:55:08;;;;;;;;;;;12.60;99.90;;;;;;5021547;28;19927;-81
2023/05/01 00:57:35;;;;;;;;;;;12.60;99.90;;;;;;5039425;28;19951;-82
2023/05/01 01:00:04;;;;;;;;;;;12.60;99.90;;;;;;5024306;28;20403;-82
2023/05/01 01:02:31;;;;;;;;;;;12.60;99.90;;;;;;5035535;28;19924;-82
2023/05/01 01:04:58;;;;;;;;;;;12.60;99.90;;;;;;5020910;28;20357;-81
2023/05/01 01:07:25;;;;;;;;;;;12.60;99.90;;;;;;5021147;28;19932;-82
2023/05/01 01:10:04;;;;;;;;;;;12.50;99.90;;;;;;5021388;28;19932;-82
2023/05/01 01:12:33;;;;;;;;;;;12.50;99.90;;;;;;5022291;28;20031;-83
2023/05/01 01:15:04;;;;;;;;;;;12.50;99.90;;;;;;5018224;28;20063;-82
2023/05/01 01:17:34;;;;;;;;;;;12.50;99.90;;;;;;5003319;28;19921;-82
2023/05/01 01:20:20;;;;;;;;;;;12.50;99.90;;;;;;5018946;28;20016;-82
2023/05/01 01:22:49;;;;;;;;;;;12.60;99.90;;;;;;5017110;28;19920;-82
2023/05/01 01:25:22;;;;;;;;;;;12.60;99.90;;;;;;5018216;28;19943;-82
2023/05/01 01:28:08;;;;;;;;;;;12.60;99.90;;;;;;5003350;28;20007;-82
2023/05/01 01:30:55;;;;;;;;;;;12.60;99.90;;;;;;5008485;28;20034;-82
2023/05/01 01:33:40;;;;;;;;;;;12.60;99.90;;;;;;5024653;28;20407;-81
2023/05/01 01:36:09;;;;;;;;;;;12.60;99.90;;;;;;5023137;28;20512;-82
2023/05/01 01:38:39;;;;;;;;;;;12.60;99.90;;;;;;5026247;28;20283;-82
2023/05/01 01:41:12;;;;;;;;;;;12.60;99.90;;;;;;5025328;28;19921;-82
2023/05/01 01:43:46;;;;;;;;;;;12.60;99.90;;;;;;5022905;28;19952;-82
2023/05/01 01:46:15;;;;;;;;;;;12.60;99.90;;;;;;5046944;28;20039;-81
2023/05/01 01:48:42;;;;;;;;;;;12.60;99.90;;;;;;5025459;28;19925;-82
2023/05/01 01:51:10;;;;;;;;;;;12.60;99.90;;;;;;5024895;28;19939;-81
2023/05/01 01:53:37;;;;;;;;;;;12.60;99.90;;;;;;5005422;28;20013;-82
2023/05/01 01:56:05;;;;;;;;;;;12.60;99.90;;;;;;5004841;28;20042;-82
2023/05/01 01:58:32;;;;;;;;;;;12.50;99.90;;;;;;5006367;28;19932;-81
2023/05/01 02:00:58;;;;;;;;;;;12.50;99.90;;;;;;5005475;28;19925;-82
2023/05/01 02:03:25;;;;;;;;;;;12.50;99.90;;;;;;5011547;28;19921;-81
2023/05/01 02:05:53;;;;;;;;;;;12.50;99.90;;;;;;5024618;28;20015;-82
2023/05/01 02:08:20;;;;;;;;;;;12.50;99.90;;;;;;5024848;28;20268;-82
2023/05/01 02:10:47;;;;;;;;;;;12.50;99.90;;;;;;5023808;28;19925;-81
2023/05/01 02:13:14;;;;;;;;;;;12.40;99.90;;;;;;5040839;28;20015;-81
2023/05/01 02:15:40;;;;;;;;;;;12.40;99.90;;;;;;5024687;28;19921;-81
2023/05/01 02:18:07;;;;;;;;;;;12.40;99.90;;;;;;5024775;28;20008;-82
2023/05/01 02:20:34;;;;;;;;;;;12.30;99.90;;;;;;5024831;28;19921;-81
2023/05/01 02:23:01;;;;;;;;;;;12.20;99.90;;;;;;5024813;28;19921;-81
2023/05/01 02:25:27;;;;;;;;;;;12.20;99.90;;;;;;5024238;28;19931;-82
2023/05/01 02:27:55;;;;;;;;;;;12.20;99.90;;;;;;5027234;28;20309;-81
2023/05/01 02:30:22;;;;;;;;;;;12.20;99.90;;;;;;5028890;28;20039;-81
2023/05/01 02:32:49;;;;;;;;;;;12.10;99.90;;;;;;5027934;28;19921;-81
2023/05/01 02:35:16;;;;;;;;;;;12.00;99.90;;;;;;5028971;28;20519;-81
2023/05/01 02:37:43;;;;;;;;;;;12.00;99.90;;;;;;5028703;28;20297;-82
2023/05/01 02:40:10;;;;;;;;;;;11.90;99.90;;;;;;5027780;28;20379;-81
2023/05/01 02:42:37;;;;;;;;;;;11.80;99.90;;;;;;5028320;28;20373;-81
2023/05/01 02:45:07;;;;;;;;;;;11.70;99.90;;;;;;5028403;28;19961;-82
2023/05/01 02:47:36;;;;;;;;;;;11.60;99.90;;;;;;5028132;28;19920;-82
2023/05/01 02:50:02;;;;;;;;;;;11.60;99.90;;;;;;5024880;28;19925;-82
2023/05/01 02:52:29;;;;;;;;;;;11.50;99.90;;;;;;5008884;28;19925;-82
2023/05/01 02:54:56;;;;;;;;;;;11.50;99.90;;;;;;5025045;28;19925;-82
2023/05/01 02:57:23;;;;;;;;;;;11.50;99.90;;;;;;5028115;28;19925;-82
2023/05/01 02:59:50;;;;;;;;;;;11.50;99.90;;;;;;5028362;28;19921;-81
2023/05/01 03:02:18;;;;;;;;;;;11.40;99.90;;;;;;5028409;28;19921;-81
2023/05/01 03:04:44;;;;;;;;;;;11.40;99.90;;;;;;5027687;28;19968;-81
2023/05/01 03:07:11;;;;;;;;;;;11.40;99.90;;;;;;5044680;28;19925;-81
2023/05/01 03:09:38;;;;;;;;;;;11.40;99.90;;;;;;5027586;28;19921;-82
2023/05/01 03:12:05;;;;;;;;;;;11.40;99.90;;;;;;5029196;28;19971;-81
2023/05/01 03:14:32;;;;;;;;;;;11.50;99.90;;;;;;5044276;28;20356;-82
2023/05/01 03:16:58;;;;;;;;;;;11.50;99.90;;;;;;5027896;28;20263;-81
2023/05/01 03:19:25;;;;;;;;;;;11.50;99.90;;;;;;5027855;28;19921;-82
2023/05/01 03:21:52;;;;;;;;;;;11.50;99.90;;;;;;5027799;28;20020;-82
2023/05/01 03:24:19;;;;;;;;;;;11.50;99.90;;;;;;5027346;28;19928;-81
2023/05/01 03:26:47;;;;;;;;;;;11.50;99.90;;;;;;5044219;28;20067;-82
2023/05/01 03:29:14;;;;;;;;;;;11.50;99.90;;;;;;5027246;28;20023;-82
2023/05/01 03:31:41;;;;;;;;;;;11.60;99.90;;;;;;5027092;28;20462;-82
2023/05/01 03:34:07;;;;;;;;;;;11.60;99.90;;;;;;5027216;28;20035;-82
2023/05/01 03:36:37;;;;;;;;;;;11.60;99.90;;;;;;5027229;28;19992;-81
2023/05/01 03:39:05;;;;;;;;;;;11.60;99.90;;;;;;5027864;28;19956;-81
2023/05/01 03:41:31;;;;;;;;;;;11.60;99.90;;;;;;5028201;28;20301;-82
2023/05/01 03:43:58;;;;;;;;;;;11.60;99.90;;;;;;5027561;28;19932;-82
2023/05/01 03:46:25;;;;;;;;;;;11.60;99.90;;;;;;5027289;28;19999;-82
2023/05/01 03:48:52;;;;;;;;;;;11.50;99.90;;;;;;5027443;28;19920;-82
2023/05/01 03:51:19;;;;;;;;;;;11.50;99.90;;;;;;5027059;28;19965;-83
2023/05/01 03:53:46;;;;;;;;;;;11.50;99.90;;;;;;5027335;28;19927;-81
2023/05/01 03:56:12;;;;;;;;;;;11.50;99.90;;;;;;5027835;28;19921;-82
2023/05/01 03:58:39;;;;;;;;;;;11.40;99.90;;;;;;5028774;28;19991;-82
2023/05/01 04:01:06;;;;;;;;;;;11.40;99.90;;;;;;5027219;28;19924;-82
2023/05/01 04:03:33;;;;;;;;;;;11.40;99.90;;;;;;5026930;28;19928;-81
2023/05/01 04:05:59;;;;;;;;;;;11.40;99.90;;;;;;5023244;28;19929;-81
2023/05/01 04:08:26;;;;;;;;;;;11.40;99.90;;;;;;5006775;28;19972;-82
2023/05/01 04:10:54;;;;;;;;;;;11.50;99.90;;;;;;5006270;28;19921;-82
2023/05/01 04:13:20;;;;;;;;;;;11.50;99.90;;;;;;5012135;28;20007;-82
2023/05/01 04:15:47;;;;;;;;;;;11.50;99.90;;;;;;5026536;28;19994;-81
2023/05/01 04:18:14;;;;;;;;;;;11.60;99.90;;;;;;5026607;28;19924;-82
2023/05/01 04:20:41;;;;;;;;;;;11.60;99.90;;;;;;5026810;28;20337;-82
2023/05/01 04:23:08;;;;;;;;;;;11.60;99.90;;;;;;5028299;28;19925;-81
2023/05/01 04:25:35;;;;;;;;;;;11.60;99.90;;;;;;5026030;28;19927;-81
2023/05/01 04:28:02;;;;;;;;;;;11.60;99.90;;;;;;5026809;28;20007;-82
2023/05/01 04:30:30;;;;;;;;;;;11.70;99.90;;;;;;5026507;28;19955;-82
2023/05/01 04:33:00;;;;;;;;;;;11.70;99.90;;;;;;5026298;28;19960;-82
2023/05/01 04:35:27;;;;;;;;;;;11.70;99.90;;;;;;5023588;28;19933;-82
2023/05/01 04:37:54;;;;;;;;;;;11.80;99.90;;;;;;5023494;28;20003;-82
2023/05/01 04:40:20;;;;;;;;;;;11.80;99.90;;;;;;5022259;28;20099;-82
2023/05/01 04:42:47;;;;;;;;;;;11.80;99.90;;;;;;5022866;28;19925;-82
2023/05/01 04:45:15;;;;;;;;;;;11.70;99.90;;;;;;5026195;28;20268;-82
2023/05/01 04:47:41;;;;;;;;;;;11.70;99.90;;;;;;5042537;28;20420;-81
2023/05/01 04:50:09;;;;;;;;;;;11.70;99.90;;;;;;5035676;28;19953;-82
2023/05/01 04:52:36;;;;;;;;;;;11.70;99.90;;;;;;5037043;28;19922;-81
2023/05/01 04:55:03;;;;;;;;;;;11.80;99.90;;;;;;5021541;28;20006;-82
2023/05/01 04:57:30;;;;;;;;;;;11.80;99.90;;;;;;5023693;28;20372;-82
2023/05/01 04:59:57;;;;;;;;;;;11.80;99.90;;;;;;5020672;28;20063;-81
2023/05/01 05:02:24;;;;;;;;;;;11.90;99.90;;;;;;5018486;28;19995;-81
2023/05/01 05:04:55;;;;;;;;;;;11.90;99.90;;;;;;5016705;28;20031;-82
2023/05/01 05:07:22;;;;;;;;;;;11.90;99.90;;;;;;5020824;28;20365;-81
2023/05/01 05:09:49;;;;;;;;;;;11.90;99.90;;;;;;5015448;28;19937;-81
2023/05/01 05:12:16;;;;;;;;;;;11.90;99.90;;;;;;5016517;28;19979;-82
2023/05/01 05:14:43;;;;;;;;;;;11.90;99.90;;;;;;5019315;28;20025;-80
2023/05/01 05:17:10;;;;;;;;;;;12.00;99.90;;;;;;5019776;28;20513;-82
2023/05/01 05:19:37;;;;;;;;;;;12.10;99.90;;;;;;5019829;28;19921;-82
2023/05/01 05:22:04;;;;;;;;;;;12.10;99.90;;;;;;5018137;28;19956;-81
2023/05/01 05:24:31;;;;;;;;;;;12.10;99.90;;;;;;5029874;28;19928;-81
2023/05/01 05:26:58;;;;;;;;;;;12.10;99.90;;;;;;5034385;28;19926;-81
2023/05/01 05:29:26;;;;;;;;;;;12.10;99.90;;;;;;5035067;28;20364;-81
2023/05/01 05:31:52;;;;;;;;;;;12.10;99.90;;;;;;5019096;28;20421;-81
2023/05/01 05:34:19;;;;;;;;;;;12.10;99.90;;;;;;5019501;28;19924;-81
2023/05/01 05:36:49;;;;;;;;;;;12.10;99.90;;;;;;5019051;28;19925;-81
2023/05/01 05:39:15;;;;;;;;;;;12.10;99.90;;;;;;5026883;28;20024;-82
2023/05/01 05:41:43;;;;;;;;;;;12.20;99.90;;;;;;5015748;28;20039;-83
2023/05/01 05:44:10;;;;;;;;;;;12.20;99.90;;;;;;5033298;28;19950;-82
2023/05/01 05:46:36;;;;;;;;;;;12.20;99.90;;;;;;5017837;28;19921;-83
2023/05/01 05:49:03;;;;;;;;;;;12.10;99.90;;;;;;5024021;28;20005;-81
2023/05/01 05:51:30;;;;;;;;;;;12.10;99.90;;;;;;5012526;28;20309;-81
2023/05/01 05:53:57;;;;;;;;;;;12.10;99.90;;;;;;5035076;28;19921;-81
2023/05/01 05:56:24;;;;;;;;;;;12.10;99.90;;;;;;5013361;28;20234;-82
2023/05/01 05:58:51;;;;;;;;;;;12.10;99.90;;;;;;5004149;28;19985;-81
2023/05/01 06:01:18;;;;;;;;;;;12.10;99.90;;;;;;5018005;28;19979;-81
2023/05/01 06:03:45;;;;;;;;;;;12.20;99.90;;;;;;5018484;28;19928;-81
2023/05/01 06:06:11;;;;;;;;;;;12.30;99.90;;;;;;5019076;28;20453;-82
2023/05/01 06:08:38;;;;;;;;;;;12.30;99.90;;;;;;5018948;28;20027;-81
2023/05/01 06:11:07;;;;;;;;;;;12.30;99.90;;;;;;5018050;28;19924;-82
2023/05/01 06:13:34;;;;;;;;;;;12.20;99.90;;;;;;5022829;28;20012;-83
2023/05/01 06:16:01;;;;;;;;;;;12.20;99.90;;;;;;5017537;28;20016;-82
2023/05/01 06:18:29;;;;;;;;;;;12.20;99.90;;;;;;5018909;28;19925;-81
2023/05/01 06:20:58;;;;;;;;;;;12.20;99.90;;;;;;5012847;28;19940;-81
2023/05/01 06:23:25;;;;;;;;;;;12.20;99.90;;;;;;5014892;28;19925;-82
2023/05/01 06:25:52;;;;;;;;;;;12.20;99.90;;;;;;5018612;28;20028;-81
2023/05/01 06:28:19;;;;;;;;;;;12.30;99.90;;;;;;5017985;28;19936;-81
2023/05/01 06:30:47;;;;;;;;;;;12.40;99.90;;;;;;5000405;28;19921;-82
2023/05/01 06:33:14;;;;;;;;;;;12.40;99.90;;;;;;5012667;28;20094;-82
2023/05/01 06:35:41;;;;;;;;;;;12.40;99.90;;;;;;5030562;28;19925;-82
2023/05/01 06:38:08;;;;;;;;;;;12.40;99.90;;;;;;5014595;28;20563;-83
2023/05/01 06:40:34;;;;;;;;;;;12.50;99.90;;;;;;5014370;28;19950;-82
2023/05/01 06:43:01;;;;;;;;;;;12.50;99.90;;;;;;5015094;28;19983;-82
2023/05/01 06:45:28;;;;;;;;;;;12.60;99.90;;;;;;5014409;28;20388;-83
2023/05/01 06:47:55;;;;;;;;;;;12.60;99.90;;;;;;5030843;28;20023;-82
2023/05/01 06:50:22;;;;;;;;;;;12.70;99.90;;;;;;5013818;28;19921;-84
2023/05/01 06:52:49;;;;;;;;;;;12.70;99.90;;;;;;5015464;28;19925;-82
2023/05/01 06:55:16;;;;;;;;;;;12.80;99.90;;;;;;5016219;28;20281;-84
2023/05/01 06:57:43;;;;;;;;;;;12.80;99.90;;;;;;5021474;28;19932;-83
2023/05/01 07:00:10;;;;;;;;;;;12.90;99.90;;;;;;5016161;28;20043;-83
2023/05/01 07:02:37;;;;;;;;;;;12.90;99.90;;;;;;5015530;28;20028;-83
2023/05/01 07:05:04;;;;;;;;;;;12.90;99.90;;;;;;5016406;28;19940;-83
2023/05/01 07:07:31;;;;;;;;;;;12.90;99.90;;;;;;5015535;28;19929;-83
2023/05/01 07:09:57;;;;;;;;;;;13.00;99.90;;;;;;5014746;28;20786;-83
2023/05/01 07:12:25;;;;;;;;;;;13.00;99.90;;;;;;5015349;28;19975;-83
2023/05/01 07:14:52;;;;;;;;;;;13.10;99.90;;;;;;5032385;28;19929;-84
2023/05/01 07:17:20;;;;;;;;;;;13.20;99.90;;;;;;5018941;28;19921;-83
2023/05/01 07:19:47;;;;;;;;;;;13.30;99.90;;;;;;5018911;28;19937;-83
2023/05/01 07:22:13;;;;;;;;;;;13.20;99.90;;;;;;5021283;28;20098;-84
2023/05/01 07:24:40;;;;;;;;;;;13.30;99.90;;;;;;5020176;28;20416;-83
2023/05/01 07:27:07;;;;;;;;;;;13.30;99.90;;;;;;5023976;28;20004;-84
2023/05/01 07:29:35;;;;;;;;;;;13.30;99.90;;;;;;5017941;28;19931;-83
2023/05/01 07:32:04;;;;;;;;;;;13.30;99.90;;;;;;5017375;28;20202;-83
2023/05/01 07:34:31;;;;;;;;;;;13.30;99.90;;;;;;5028513;28;19925;-84
2023/05/01 07:36:58;;;;;;;;;;;13.40;99.90;;;;;;5021588;28;19924;-79
2023/05/01 07:39:25;;;;;;;;;;;13.30;99.90;;;;;;5031614;28;19932;-79
2023/05/01 07:41:51;;;;;;;;;;;13.40;99.90;;;;;;5030097;28;20022;-80
2023/05/01 07:44:18;;;;;;;;;;;13.40;99.90;;;;;;5016923;28;20034;-80
2023/05/01 07:46:45;;;;;;;;;;;13.50;99.90;;;;;;5009065;28;20586;-80
2023/05/01 07:49:12;;;;;;;;;;;13.50;99.90;;;;;;5017532;28;20030;-80
2023/05/01 07:51:38;;;;;;;;;;;13.50;99.90;;;;;;5032834;28;20432;-80
2023/05/01 07:54:05;;;;;;;;;;;13.50;99.90;;;;;;5018571;28;20059;-79
2023/05/01 07:56:32;;;;;;;;;;;13.50;99.90;;;;;;5046649;28;20296;-80
2023/05/01 07:58:59;;;;;;;;;;;13.40;99.90;;;;;;5015041;28;19952;-80
2023/05/01 08:01:25;;;;;;;;;;;13.40;99.90;;;;;;5016676;28;19975;-79
2023/05/01 08:03:52;;;;;;;;;;;13.40;99.90;;;;;;5032096;28;19936;-80
2023/05/01 08:06:19;;;;;;;;;;;13.40;99.90;;;;;;5016411;28;20418;-79
2023/05/01 08:08:46;;;;;;;;;;;13.50;99.90;;;;;;4996605;28;19975;-80
2023/05/01 08:11:13;;;;;;;;;;;13.50;99.90;;;;;;5014298;28;20382;-80
2023/05/01 08:13:39;;;;;;;;;;;13.60;99.90;;;;;;5012687;28;20381;-80
2023/05/01 08:16:06;;;;;;;;;;;13.70;99.90;;;;;;5017329;28;19925;-79
2023/05/01 08:18:33;;;;;;;;;;;13.70;99.90;;;;;;5027067;28;19925;-80
2023/05/01 08:21:00;;;;;;;;;;;13.60;99.90;;;;;;5019880;28;19927;-79
2023/05/01 08:23:27;;;;;;;;;;;13.50;99.90;;;;;;5009987;28;19936;-80
2023/05/01 08:25:54;;;;;;;;;;;13.50;99.90;;;;;;5008857;28;19925;-80
2023/05/01 08:28:24;;;;;;;;;;;13.60;99.90;;;;;;5015729;28;19932;-80
2023/05/01 08:30:53;;;;;;;;;;;13.50;99.90;;;;;;5031036;28;19940;-79
2023/05/01 08:33:20;;;;;;;;;;;13.50;99.90;;;;;;5018307;28;20417;-80
2023/05/01 08:35:47;;;;;;;;;;;13.60;99.90;;;;;;5028767;28;19932;-80
2023/05/01 08:38:14;;;;;;;;;;;13.60;99.90;;;;;;5022898;28;19925;-80
2023/05/01 08:40:42;;;;;;;;;;;13.70;99.90;;;;;;5013317;28;19925;-80
2023/05/01 08:43:09;;;;;;;;;;;13.70;99.90;;;;;;5030506;28;20095;-79
2023/05/01 08:45:36;;;;;;;;;;;13.70;99.90;;;;;;5017364;28;20454;-78
2023/05/01 08:48:04;;;;;;;;;;;13.80;99.90;;;;;;5014085;28;20448;-80
2023/05/01 08:50:32;;;;;;;;;;;13.90;99.90;;;;;;5020604;28;20016;-79
2023/05/01 08:52:59;;;;;;;;;;;14.00;99.90;;;;;;5015187;28;19939;-79
2023/05/01 08:55:26;;;;;;;;;;;14.20;99.90;;;;;;5014145;28;20423;-79
2023/05/01 08:57:53;;;;;;;;;;;14.50;99.90;;;;;;5010914;28;20008;-80
2023/05/01 09:00:20;;;;;;;;;;;14.70;99.90;;;;;;5014581;28;19925;-79
2023/05/01 09:02:47;;;;;;;;;;;14.90;99.90;;;;;;5013756;28;19935;-80
2023/05/01 09:05:14;;;;;;;;;;;15.10;99.90;;;;;;5015927;28;19925;-79
2023/05/01 09:07:41;;;;;;;;;;;15.20;99.90;;;;;;5013811;28;19921;-80
2023/05/01 09:10:08;;;;;;;;;;;15.40;99.90;;;;;;5011999;28;20547;-79
2023/05/01 09:12:35;;;;;;;;;;;15.50;99.90;;;;;;5010893;28;19969;-79
2023/05/01 09:15:02;;;;;;;;;;;15.70;99.90;;;;;;5012059;28;20007;-79
2023/05/01 09:17:30;;;;;;;;;;;15.60;99.90;;;;;;5012594;28;19929;-79
2023/05/01 09:19:57;;;;;;;;;;;15.50;99.90;;;;;;5013913;28;19925;-80
2023/05/01 09:22:24;;;;;;;;;;;15.40;99.90;;;;;;5007452;28;19925;-79
2023/05/01 09:24:51;;;;;;;;;;;15.50;99.90;;;;;;5005377;28;19983;-80
2023/05/01 09:27:18;;;;;;;;;;;15.50;99.90;;;;;;5009229;28;19929;-79
2023/05/01 09:29:45;;;;;;;;;;;15.60;99.90;;;;;;5007792;28;19925;-79
2023/05/01 09:32:12;;;;;;;;;;;15.70;99.90;;;;;;5009003;28;20305;-79
2023/05/01 09:34:39;;;;;;;;;;;15.80;99.90;;;;;;5012076;28;19935;-79
2023/05/01 09:37:06;;;;;;;;;;;15.90;99.90;;;;;;5007714;28;19928;-80
2023/05/01 09:39:33;;;;;;;;;;;16.10;99.90;;;;;;5009476;28;20008;-80
2023/05/01 09:42:01;;;;;;;;;;;16.20;99.90;;;;;;5011902;28;19931;-79
2023/05/01 09:44:30;;;;;;;;;;;16.40;99.90;;;;;;5029940;28;19955;-81
2023/05/01 09:46:57;;;;;;;;;;;16.40;99.90;;;;;;5015891;28;19925;-79
2023/05/01 09:49:48;;;;;;;;;;;16.30;99.90;;;;;;5012860;28;19928;-80
2023/05/01 09:52:15;;;;;;;;;;;16.20;99.90;;;;;;5038841;28;20396;-79
2023/05/01 09:54:43;;;;;;;;;;;16.30;99.90;;;;;;5013301;28;19924;-79
2023/05/01 09:57:10;;;;;;;;;;;16.20;99.90;;;;;;5022967;28;19929;-79
2023/05/01 09:59:37;;;;;;;;;;;16.00;99.90;;;;;;5015645;28;19932;-80
2023/05/01 10:02:05;;;;;;;;;;;16.00;99.90;;;;;;5013259;28;19925;-78
2023/05/01 10:04:32;;;;;;;;;;;15.80;99.90;;;;;;5010568;28;19929;-81
2023/05/01 10:07:19;;;;;;;;;;;15.50;99.90;;;;;;5026956;28;20151;-81
2023/05/01 10:09:50;;;;;;;;;;;15.50;99.90;;;;;;5023049;28;20083;-84
2023/05/01 10:12:27;;;;;;;;;;;15.60;99.90;;;;;;5047885;28;19931;-90
2023/05/01 10:14:55;;;;;;;;;;;15.70;99.90;;;;;;5016460;28;19982;-86
2023/05/01 10:17:22;;;;;;;;;;;15.90;99.90;;;;;;5031685;28;19925;-87
2023/05/01 10:19:50;;;;;;;;;;;16.20;99.90;;;;;;5015724;28;20397;-88
2023/05/01 10:22:17;;;;;;;;;;;16.30;99.90;;;;;;5020460;28;19967;-88
2023/05/01 10:24:45;;;;;;;;;;;16.40;99.90;;;;;;5014316;28;20323;-88
2023/05/01 10:27:11;;;;;;;;;;;16.30;99.90;;;;;;5020154;28;20295;-88
2023/05/01 10:29:42;;;;;;;;;;;16.30;99.90;;;;;;5000591;28;19948;-88
2023/05/01 10:32:08;;;;;;;;;;;16.20;99.90;;;;;;5019110;28;19925;-88
2023/05/01 10:34:40;;;;;;;;;;;16.10;99.90;;;;;;5018189;28;19948;-88
2023/05/01 10:37:20;;;;;;;;;;;16.20;99.90;;;;;;5019027;28;20007;-87
2023/05/01 10:39:47;;;;;;;;;;;16.30;99.90;;;;;;5011793;28;20007;-87
2023/05/01 10:42:15;;;;;;;;;;;16.50;99.90;;;;;;5019109;28;20021;-88
2023/05/01 10:44:42;;;;;;;;;;;16.70;99.90;;;;;;5023018;28;20418;-88
2023/05/01 10:47:29;;;;;;;;;;;16.90;99.90;;;;;;5024698;28;19925;-88
2023/05/01 10:50:03;;;;;;;;;;;17.10;99.90;;;;;;5024387;28;19921;-88
2023/05/01 10:52:30;;;;;;;;;;;17.30;99.90;;;;;;5012050;28;19924;-88
2023/05/01 10:55:21;;;;;;;;;;;17.40;99.90;;;;;;5023071;28;20228;-88
2023/05/01 10:57:51;;;;;;;;;;;17.40;99.90;;;;;;5008122;28;19936;-88
2023/05/01 11:00:19;;;;;;;;;;;17.30;99.90;;;;;;5027144;28;20370;-88
2023/05/01 11:02:45;;;;;;;;;;;17.40;99.90;;;;;;5026681;28;19988;-88
2023/05/01 11:05:12;;;;;;;;;;;17.50;99.90;;;;;;5025576;28;20168;-89
2023/05/01 11:07:39;;;;;;;;;;;17.50;99.90;;;;;;5028929;28;20391;-88
2023/05/01 11:10:23;;;;;;;;;;;17.50;99.90;;;;;;5043332;28;20089;-88
2023/05/01 11:12:51;;;;;;;;;;;17.60;99.90;;;;;;5020438;28;19975;-88
2023/05/01 11:15:26;;;;;;;;;;;17.70;99.90;;;;;;5026370;28;19928;-88
2023/05/01 11:17:54;;;;;;;;;;;17.80;99.90;;;;;;5025313;28;19925;-87
2023/05/01 11:20:24;;;;;;;;;;;18.00;99.90;;;;;;5027553;28;19999;-89
2023/05/01 11:22:52;;;;;;;;;;;18.20;99.90;;;;;;5026353;28;19967;-88
2023/05/01 11:25:19;;;;;;;;;;;18.20;99.90;;;;;;5026592;28;19921;-89
2023/05/01 11:27:51;;;;;;;;;;;18.40;99.90;;;;;;5026229;28;19925;-89
2023/05/01 11:30:23;;;;;;;;;;;18.40;99.90;;;;;;5026083;28;19921;-88
2023/05/01 11:32:50;;;;;;;;;;;18.40;99.90;;;;;;5026928;28;20031;-89
2023/05/01 11:35:27;;;;;;;;;;;18.60;99.90;;;;;;5022177;28;19956;-89
2023/05/01 11:37:57;;;;;;;;;;;18.60;99.90;;;;;;5017665;28;19921;-89
2023/05/01 11:40:30;;;;;;;;;;;18.70;99.90;;;;;;5023814;28;19930;-89
2023/05/01 11:43:04;;;;;;;;;;;19.00;99.90;;;;;;5026341;28;20019;-89
2023/05/01 11:45:30;;;;;;;;;;;18.90;99.90;;;;;;5024338;28;20001;-89
2023/05/01 11:47:57;;;;;;;;;;;19.10;99.90;;;;;;5023668;28;19984;-89
2023/05/01 11:50:31;;;;;;;;;;;19.30;99.90;;;;;;5026717;28;19998;-90
2023/05/01 11:52:59;;;;;;;;;;;19.20;99.90;;;;;;5023258;28;20321;-90
2023/05/01 11:55:32;;;;;;;;;;;19.30;99.90;;;;;;5023421;28;19968;-87
2023/05/01 11:57:59;;;;;;;;;;;19.40;99.90;;;;;;5039102;28;20174;-87
2023/05/01 12:00:30;;;;;;;;;;;19.90;99.90;;;;;;5022565;28;19925;-88
2023/05/01 12:03:01;;;;;;;;;;;20.10;99.80;;;;;;5023492;28;19927;-88
2023/05/01 12:05:29;;;;;;;;;;;19.90;99.30;;;;;;5022219;28;19925;-88
2023/05/01 12:08:17;;;;;;;;;;;19.50;99.00;;;;;;5021668;28;19943;-89
2023/05/01 12:10:45;;;;;;;;;;;19.20;99.50;;;;;;5025873;28;19979;-87
2023/05/01 12:13:12;;;;;;;;;;;19.10;99.90;;;;;;5024693;28;19933;-87
2023/05/01 12:15:40;;;;;;;;;;;19.00;99.90;;;;;;5022653;28;19972;-87
2023/05/01 12:18:07;;;;;;;;;;;19.10;99.90;;;;;;5024888;28;20100;-87
2023/05/01 12:20:36;;;;;;;;;;;19.10;99.90;;;;;;5030655;28;20285;-86
2023/05/01 12:23:04;;;;;;;;;;;19.10;99.90;;;;;;5024029;28;20315;-87
2023/05/01 12:25:32;;;;;;;;;;;19.10;99.90;;;;;;5037572;28;20427;-87
2023/05/01 12:28:08;;;;;;;;;;;18.80;99.90;;;;;;5024817;28;20380;-86
2023/05/01 12:30:35;;;;;;;;;;;18.70;99.90;;;;;;5024718;28;19932;-86
2023/05/01 12:33:10;;;;;;;;;;;18.40;99.90;;;;;;5024380;28;19952;-86
2023/05/01 12:35:37;;;;;;;;;;;18.50;99.90;;;;;;5024287;28;19936;-86
2023/05/01 12:38:14;;;;;;;;;;;18.40;99.90;;;;;;5019778;28;19991;-85
2023/05/01 12:40:54;;;;;;;;;;;18.50;99.90;;;;;;5017872;28;20046;-86
2023/05/01 12:43:21;;;;;;;;;;;18.60;99.90;;;;;;5020267;28;20036;-86
2023/05/01 12:45:50;;;;;;;;;;;18.80;99.50;;;;;;5019163;28;19921;-86
2023/05/01 12:48:18;;;;;;;;;;;18.90;99.20;;;;;;5018071;28;19932;-85
2023/05/01 12:50:45;;;;;;;;;;;18.80;99.40;;;;;;5023036;28;20337;-86
2023/05/01 12:53:14;;;;;;;;;;;18.60;99.90;;;;;;5022134;28;19931;-87
2023/05/01 12:55:44;;;;;;;;;;;18.40;99.90;;;;;;5021670;28;19958;-86
2023/05/01 12:58:11;;;;;;;;;;;18.50;99.80;;;;;;5020726;28;19929;-87
2023/05/01 13:00:43;;;;;;;;;;;18.40;99.90;;;;;;5021911;28;19929;-86
2023/05/01 13:03:10;;;;;;;;;;;18.20;99.90;;;;;;5022557;28;19929;-87
2023/05/01 13:05:48;;;;;;;;;;;17.90;99.90;;;;;;5020821;28;19979;-86
2023/05/01 13:08:16;;;;;;;;;;;17.90;99.90;;;;;;5020921;28;20349;-87
2023/05/01 13:10:43;;;;;;;;;;;17.90;99.90;;;;;;5021602;28;19931;-86
2023/05/01 13:13:13;;;;;;;;;;;18.20;99.90;;;;;;5022661;28;19979;-87
2023/05/01 13:15:40;;;;;;;;;;;18.70;99.90;;;;;;5038948;28;19947;-87
2023/05/01 13:18:07;;;;;;;;;;;19.50;99.90;;;;;;5023318;28;19932;-87
2023/05/01 13:20:37;;;;;;;;;;;20.00;99.90;;;;;;5019883;28;20297;-87
2023/05/01 13:23:13;;;;;;;;;;;20.50;99.70;;;;;;5019792;28;19925;-87
2023/05/01 13:25:40;;;;;;;;;;;21.00;98.60;;;;;;5019501;28;19940;-87
2023/05/01 13:28:08;;;;;;;;;;;21.40;97.00;;;;;;5021787;28;19921;-87
2023/05/01 13:30:35;;;;;;;;;;;22.30;96.30;;;;;;5030904;28;19931;-86
2023/05/01 13:33:03;;;;;;;;;;;23.00;95.40;;;;;;5014146;28;20366;-86
2023/05/01 13:35:30;;;;;;;;;;;23.20;94.40;;;;;;5035615;28;19929;-88
2023/05/01 13:37:57;;;;;;;;;;;23.00;94.40;;;;;;5022416;28;20365;-87
2023/05/01 13:40:25;;;;;;;;;;;23.00;94.80;;;;;;5023221;28;19922;-85
2023/05/01 13:42:52;;;;;;;;;;;22.50;93.90;;;;;;5015994;28;20456;-86
2023/05/01 13:45:20;;;;;;;;;;;21.50;94.50;;;;;;5025576;28;19975;-87
2023/05/01 13:47:48;;;;;;;;;;;21.40;95.50;;;;;;5021440;28;20042;-86
2023/05/01 13:50:16;;;;;;;;;;;21.40;95.00;;;;;;5019552;28;19987;-86
2023/05/01 13:52:43;;;;;;;;;;;20.90;94.70;;;;;;5021435;28;19925;-87
2023/05/01 13:55:10;;;;;;;;;;;21.50;95.20;;;;;;5019496;28;19939;-85
2023/05/01 13:57:39;;;;;;;;;;;22.50;93.40;;;;;;5019195;28;19936;-84
2023/05/01 14:00:07;;;;;;;;;;;23.50;92.90;;;;;;5011158;28;19945;-87
2023/05/01 14:02:35;;;;;;;;;;;23.70;91.40;;;;;;5016915;28;19948;-87
2023/05/01 14:05:04;;;;;;;;;;;23.70;90.80;;;;;;5016724;28;20459;-86
2023/05/01 14:07:32;;;;;;;;;;;23.40;91.20;;;;;;5019881;28;19925;-86
2023/05/01 14:09:59;;;;;;;;;;;23.10;91.30;;;;;;5017194;28;20592;-85
2023/05/01 14:12:27;;;;;;;;;;;23.10;91.30;;;;;;5018324;28;19932;-86
2023/05/01 14:14:54;;;;;;;;;;;23.80;91.20;;;;;;5017326;28;19936;-87
2023/05/01 14:17:24;;;;;;;;;;;24.80;90.50;;;;;;5014381;28;19955;-87
2023/05/01 14:19:53;;;;;;;;;;;24.60;84.40;;;;;;5024672;28;20448;-88
2023/05/01 14:22:21;;;;;;;;;;;23.40;85.50;;;;;;5006636;28;19933;-87